This is the latest recevied weather packets stored in our database for station/object KC9DRE. If no packets are shown the sender has not sent any weather packets the latest 10 day(s).
| Time | Temp. | Humidity | Pressure | Rain* | Wind** | Luminosity | Snow |
|---|---|---|---|---|---|---|---|
| 1787809108 | 21.11° C | 93% | 1014.8 hPa | 0 mm | - | 0 W/m² | - |
| 1787808804 | 21.11° C | 93% | 1014.9 hPa | 0 mm | - | 0 W/m² | - |
| 1787808504 | 21.11° C | 93% | 1015 hPa | 0 mm | - | 0 W/m² | - |
| 1787808203 | 21.11° C | 93% | 1014.9 hPa | 0 mm | - | 0 W/m² | - |
| 1787807902 | 20.56° C | 95% | 1014.9 hPa | 0 mm | - | 0 W/m² | - |
| 1787807598 | 20.56° C | 96% | 1014.9 hPa | 0 mm | - | 0 W/m² | - |
| 1787807293 | 20.56° C | 96% | 1014.9 hPa | 0 mm | - | 0 W/m² | - |
| 1787806988 | 20.56° C | 96% | 1014.7 hPa | 0 mm | - | 0 W/m² | - |
| 1787806686 | 20.56° C | 96% | 1014.6 hPa | 0 mm | - | 0 W/m² | - |
| 1787806383 | 20.56° C | 96% | 1014.5 hPa | 0 mm | - | 0 W/m² | - |
| 1787806081 | 20.56° C | 96% | 1014.4 hPa | 0 mm | - | 0 W/m² | - |
| 1787805776 | 20° C | 96% | 1014.8 hPa | 0 mm | - | 0 W/m² | - |
| 1787805472 | 20° C | 95% | 1014.8 hPa | 1.27 mm | - | 0 W/m² | - |
| 1787805168 | 20° C | 95% | 1015.3 hPa | 1.27 mm | - | 0 W/m² | - |
| 1787804866 | 20° C | 95% | 1015.5 hPa | 0 mm | - | 0 W/m² | - |
| 1787804562 | 20° C | 95% | 1015 hPa | 0 mm | - | 0 W/m² | - |
| 1787804261 | 20° C | 94% | 1015.2 hPa | 0 mm | - | 0 W/m² | - |
| 1787803956 | 20.56° C | 94% | 1015.4 hPa | 8.89 mm | - | 0 W/m² | - |
| 1787803650 | 20.56° C | 93% | 1015.3 hPa | 8.89 mm | - | 0 W/m² | - |
| 1787803349 | 20.56° C | 92% | 1015.6 hPa | 6.6 mm | - | 0 W/m² | - |
| 1787803044 | 20.56° C | 91% | 1016.4 hPa | 7.87 mm | - | 0 W/m² | - |
| 1787802744 | 21.11° C | 89% | 1016.3 hPa | 7.87 mm | - | 0 W/m² | - |
| 1787802432 | 21.67° C | 86% | 1016.5 hPa | 7.11 mm | - | 0 W/m² | - |
| 1787802131 | 22.78° C | 82% | 1016.3 hPa | 1.27 mm | - | 0 W/m² | - |
| 1787801827 | 22.78° C | 79% | 1016.2 hPa | 0 mm | - | 0 W/m² | - |
* Rain latest hour (hover to see other rain measurements)
** Current wind speed in m/s (hover to see current wind gust speed)